createdAt,value
2017-10-30T00:00:44.232Z,45
2017-10-30T00:01:44.225Z,45
2017-10-30T00:02:44.272Z,45
2017-10-30T00:03:44.300Z,45
2017-10-30T00:04:44.281Z,45
2017-10-30T00:05:44.203Z,45
2017-10-30T00:06:44.221Z,45
2017-10-30T00:07:44.236Z,45
2017-10-30T00:08:44.344Z,45
2017-10-30T00:09:44.254Z,45
2017-10-30T00:10:44.244Z,45
2017-10-30T00:11:44.260Z,45
2017-10-30T00:12:44.247Z,45
2017-10-30T00:13:44.305Z,45
2017-10-30T00:14:44.253Z,45
2017-10-30T00:15:44.227Z,45
2017-10-30T00:16:44.239Z,45
2017-10-30T00:17:44.228Z,45
2017-10-30T00:18:44.413Z,45
2017-10-30T00:19:44.269Z,45
2017-10-30T00:20:44.330Z,45
2017-10-30T00:21:44.281Z,59.2
2017-10-30T00:22:44.243Z,64.5
2017-10-30T00:23:44.285Z,64.5
2017-10-30T00:24:44.225Z,54
2017-10-30T00:25:44.229Z,49.1
2017-10-30T00:26:44.274Z,46.9
2017-10-30T00:27:44.268Z,45.9
2017-10-30T00:28:44.253Z,45.4
2017-10-30T00:29:44.240Z,45.2
2017-10-30T00:30:44.242Z,45.1
2017-10-30T00:31:44.248Z,45
2017-10-30T00:32:44.208Z,45
2017-10-30T00:33:44.355Z,45
2017-10-30T00:34:44.291Z,55.2
2017-10-30T00:35:44.236Z,52.4
2017-10-30T00:36:44.221Z,48.5
2017-10-30T00:37:44.224Z,46.6
2017-10-30T00:38:44.258Z,45.7
2017-10-30T00:39:44.215Z,45.4
2017-10-30T00:40:44.232Z,45.2
2017-10-30T00:41:44.202Z,45.1
2017-10-30T00:42:44.244Z,45
2017-10-30T00:43:44.280Z,45
2017-10-30T00:44:44.234Z,45
2017-10-30T00:45:44.286Z,45
2017-10-30T00:46:44.206Z,45
2017-10-30T00:47:44.229Z,45
2017-10-30T00:48:44.251Z,45
2017-10-30T00:49:44.223Z,45
2017-10-30T00:50:44.663Z,45
2017-10-30T00:51:44.204Z,45
2017-10-30T00:52:44.287Z,45
2017-10-30T00:53:44.385Z,45
2017-10-30T00:54:44.246Z,45
2017-10-30T00:55:44.249Z,45
2017-10-30T00:56:44.272Z,45
2017-10-30T00:57:44.255Z,45
2017-10-30T00:58:44.383Z,45
2017-10-30T00:59:44.236Z,45
2017-10-30T01:00:44.202Z,45
2017-10-30T01:01:44.216Z,45
2017-10-30T01:02:44.260Z,102.5
2017-10-30T01:03:44.259Z,216.5
2017-10-30T01:04:44.210Z,222.4
2017-10-30T01:05:44.230Z,224
2017-10-30T01:06:44.274Z,224.6
2017-10-30T01:07:44.268Z,224.8
2017-10-30T01:08:44.245Z,224.9
2017-10-30T01:09:44.259Z,225
2017-10-30T01:10:44.192Z,244.1
2017-10-30T01:11:44.258Z,258.4
2017-10-30T01:12:44.245Z,231.9
2017-10-30T01:13:44.245Z,211.4
2017-10-30T01:15:04.046Z,232.5
2017-10-30T01:15:44.243Z,238
2017-10-30T01:16:44.199Z,247.1
2017-10-30T01:17:44.267Z,260
2017-10-30T01:18:44.213Z,265.6
2017-10-30T01:19:44.299Z,267.9
2017-10-30T01:20:44.179Z,269
2017-10-30T01:21:44.233Z,269.6
2017-10-30T01:22:44.207Z,269.8
2017-10-30T01:23:44.218Z,264.1
2017-10-30T01:24:44.314Z,242.9
2017-10-30T01:25:44.242Z,232.8
2017-10-30T01:26:44.252Z,228.5
2017-10-30T01:27:44.214Z,246
2017-10-30T01:28:44.204Z,259.3
2017-10-30T01:29:44.276Z,265.1
2017-10-30T01:30:44.192Z,267.8
2017-10-30T01:31:44.233Z,269
2017-10-30T01:32:44.224Z,269.5
2017-10-30T01:33:44.188Z,269.8
2017-10-30T01:34:44.263Z,269.9
2017-10-30T01:35:44.180Z,270
2017-10-30T01:36:44.210Z,270
2017-10-30T01:37:44.207Z,234.1
2017-10-30T01:38:44.230Z,191.6
2017-10-30T01:39:44.317Z,186.6
2017-10-30T01:40:44.193Z,208.1
2017-10-30T01:41:44.218Z,218.4
2017-10-30T01:42:44.191Z,222
2017-10-30T01:43:44.246Z,223.6
2017-10-30T01:44:44.286Z,224.4
2017-10-30T01:45:44.254Z,224.7
2017-10-30T01:46:44.204Z,215.9
2017-10-30T01:48:44.173Z,193.2
2017-10-30T01:49:44.290Z,193
2017-10-30T01:50:44.183Z,205.9
2017-10-30T01:51:44.253Z,216.5
2017-10-30T01:52:44.237Z,221.1
2017-10-30T01:53:44.229Z,223.2
2017-10-30T01:54:44.255Z,224.2
2017-10-30T01:55:44.234Z,224.6
2017-10-30T01:56:44.195Z,224.8
2017-10-30T01:57:44.227Z,224.9
2017-10-30T01:58:44.181Z,225
2017-10-30T01:59:44.279Z,225
2017-10-30T02:00:44.173Z,225
2017-10-30T02:01:44.165Z,225
2017-10-30T02:02:44.164Z,225
2017-10-30T02:03:44.191Z,225
2017-10-30T02:04:44.262Z,225
2017-10-30T02:05:44.285Z,225
2017-10-30T02:06:44.205Z,225
2017-10-30T02:07:44.194Z,225
2017-10-30T02:08:44.150Z,225
2017-10-30T02:09:44.252Z,225
2017-10-30T02:10:44.188Z,225
2017-10-30T02:11:44.158Z,225
2017-10-30T02:12:44.198Z,225
2017-10-30T02:13:44.211Z,225
2017-10-30T02:14:44.231Z,225
2017-10-30T02:15:44.186Z,225
2017-10-30T02:16:44.149Z,225
2017-10-30T02:17:44.210Z,225
2017-10-30T02:18:44.218Z,225
2017-10-30T02:19:44.276Z,225
2017-10-30T02:20:44.188Z,225
2017-10-30T02:21:44.193Z,225
2017-10-30T02:22:44.181Z,225
2017-10-30T02:23:44.230Z,225
2017-10-30T02:24:44.254Z,234.3
2017-10-30T02:25:44.224Z,253.6
2017-10-30T02:26:44.202Z,262.6
2017-10-30T02:27:44.223Z,266.6
2017-10-30T02:28:44.215Z,268.4
2017-10-30T02:29:44.250Z,269.3
2017-10-30T02:30:44.187Z,269.7
2017-10-30T02:31:44.174Z,269.8
2017-10-30T02:32:44.169Z,260.3
2017-10-30T02:33:44.147Z,253.4
2017-10-30T02:34:44.212Z,250.3
2017-10-30T02:35:44.183Z,248.8
2017-10-30T02:36:44.218Z,248.1
2017-10-30T02:37:44.174Z,247.8
2017-10-30T02:38:44.154Z,247.6
2017-10-30T02:39:44.262Z,247.6
2017-10-30T02:40:44.171Z,247.5
2017-10-30T02:41:44.151Z,225.1
2017-10-30T02:42:44.214Z,225.1
2017-10-30T02:43:44.181Z,225
2017-10-30T02:44:44.235Z,219.4
2017-10-30T02:45:44.160Z,256.3
2017-10-30T02:46:44.207Z,281
2017-10-30T02:47:44.132Z,277.4
2017-10-30T02:48:44.166Z,273.2
2017-10-30T02:49:44.237Z,250.5
2017-10-30T02:50:44.224Z,218.3
2017-10-30T02:51:44.178Z,222.4
2017-10-30T02:52:44.183Z,223.9
2017-10-30T02:53:44.237Z,224.5
2017-10-30T02:54:44.200Z,224.8
2017-10-30T02:55:44.232Z,224.9
2017-10-30T02:56:44.173Z,224.9
2017-10-30T02:57:44.195Z,225
2017-10-30T02:58:44.148Z,225
2017-10-30T02:59:44.186Z,225
2017-10-30T03:00:44.202Z,225
2017-10-30T03:01:44.156Z,225
2017-10-30T03:02:44.197Z,225
2017-10-30T03:03:44.153Z,225
2017-10-30T03:04:44.200Z,225
2017-10-30T03:05:44.215Z,225
2017-10-30T03:06:44.160Z,225
2017-10-30T03:07:44.146Z,225
2017-10-30T03:08:44.120Z,225
2017-10-30T03:09:44.138Z,225
2017-10-30T03:10:44.258Z,225
2017-10-30T03:11:44.159Z,225
2017-10-30T03:12:44.156Z,225
2017-10-30T03:13:44.181Z,225
2017-10-30T03:14:44.156Z,225
2017-10-30T03:15:44.259Z,225
2017-10-30T03:16:44.152Z,225
2017-10-30T03:17:44.163Z,225
2017-10-30T03:18:44.186Z,225
2017-10-30T03:19:44.153Z,225
2017-10-30T03:20:44.224Z,222.4
2017-10-30T03:21:44.152Z,211.7
2017-10-30T03:22:44.164Z,208.4
2017-10-30T03:23:44.197Z,217.3
2017-10-30T03:24:44.163Z,221.4
2017-10-30T03:25:44.196Z,223.3
2017-10-30T03:26:44.118Z,224.2
2017-10-30T03:27:44.168Z,224.6
2017-10-30T03:28:44.120Z,224.8
2017-10-30T03:29:44.202Z,224.9
2017-10-30T03:30:44.224Z,225
2017-10-30T03:31:44.137Z,241.2
2017-10-30T03:32:44.157Z,257.4
2017-10-30T03:33:44.133Z,263
2017-10-30T03:34:44.115Z,173
2017-10-30T03:35:44.232Z,145.4
2017-10-30T03:36:44.144Z,139
2017-10-30T03:37:44.173Z,136.7
2017-10-30T03:38:44.133Z,135.8
2017-10-30T03:39:44.152Z,135.4
2017-10-30T03:40:44.167Z,135.2
2017-10-30T03:41:44.143Z,135.1
2017-10-30T03:42:44.109Z,135
2017-10-30T03:43:44.166Z,135
2017-10-30T03:44:44.199Z,135
2017-10-30T03:45:44.226Z,135
2017-10-30T03:46:44.169Z,135
2017-10-30T03:47:44.131Z,135.3
2017-10-30T03:48:44.132Z,135.1
2017-10-30T03:49:44.121Z,135.1
2017-10-30T03:50:44.224Z,135
2017-10-30T03:51:44.137Z,135.5
2017-10-30T03:52:44.145Z,135.2
2017-10-30T03:53:44.134Z,135.1
2017-10-30T03:54:44.136Z,135.6
2017-10-30T03:55:44.196Z,135.3
2017-10-30T03:56:44.159Z,135.1
2017-10-30T03:57:44.150Z,135.1
2017-10-30T03:58:44.158Z,135
2017-10-30T03:59:44.126Z,135
2017-10-30T04:00:44.169Z,135
2017-10-30T04:01:44.203Z,135
2017-10-30T04:02:44.140Z,135
2017-10-30T04:03:44.150Z,135
2017-10-30T04:04:44.221Z,135
2017-10-30T04:05:44.112Z,135
2017-10-30T04:06:44.194Z,135
2017-10-30T04:07:44.126Z,135
2017-10-30T04:08:44.146Z,135
2017-10-30T04:09:44.147Z,135
2017-10-30T04:10:44.104Z,135
2017-10-30T04:11:44.168Z,135
2017-10-30T04:12:44.135Z,135
2017-10-30T04:13:44.111Z,135
2017-10-30T04:14:44.131Z,143.4
2017-10-30T04:15:44.130Z,156.2
2017-10-30T04:16:44.224Z,169.2
2017-10-30T04:17:44.092Z,175.1
2017-10-30T04:18:44.112Z,195.6
2017-10-30T04:19:44.183Z,212
2017-10-30T04:20:44.141Z,219.2
2017-10-30T04:21:44.244Z,222.3
2017-10-30T04:22:44.128Z,223.8
2017-10-30T04:23:44.108Z,224.4
2017-10-30T04:24:44.135Z,224.7
2017-10-30T04:25:44.148Z,224.9
2017-10-30T04:26:44.244Z,224.9
2017-10-30T04:27:44.109Z,225
2017-10-30T04:28:44.109Z,225
2017-10-30T04:29:44.086Z,218.9
2017-10-30T04:30:44.095Z,170.9
2017-10-30T04:31:44.150Z,148.7
2017-10-30T04:32:44.104Z,140.8
2017-10-30T04:33:44.105Z,137.5
2017-10-30T04:34:44.141Z,136.2
2017-10-30T04:35:44.078Z,135.5
2017-10-30T04:36:44.207Z,135.3
2017-10-30T04:37:44.110Z,135.9
2017-10-30T04:38:44.099Z,116.3
2017-10-30T04:39:44.138Z,101.7
2017-10-30T04:40:44.110Z,95.3
2017-10-30T04:41:44.206Z,92.4
2017-10-30T04:42:44.180Z,91.1
2017-10-30T04:43:44.112Z,90.5
2017-10-30T04:44:44.095Z,90.2
2017-10-30T04:45:44.126Z,119.4
2017-10-30T04:46:44.167Z,128.3
2017-10-30T04:47:44.138Z,132
2017-10-30T04:48:44.129Z,133.6
2017-10-30T04:49:44.106Z,134.4
2017-10-30T04:50:44.141Z,134.7
2017-10-30T04:51:44.237Z,134.9
2017-10-30T04:52:44.120Z,134.9
2017-10-30T04:53:44.102Z,135
2017-10-30T04:54:44.118Z,135
2017-10-30T04:55:44.100Z,135
2017-10-30T04:56:44.190Z,135
2017-10-30T04:57:44.093Z,135
2017-10-30T04:58:44.074Z,135
2017-10-30T04:59:44.140Z,135
2017-10-30T05:00:44.106Z,135.3
2017-10-30T05:01:44.172Z,135.1
2017-10-30T05:02:44.132Z,135.1
2017-10-30T05:03:44.164Z,135
2017-10-30T05:04:44.090Z,135
2017-10-30T05:05:44.097Z,135.8
2017-10-30T05:06:44.151Z,144.3
2017-10-30T05:07:44.129Z,151.4
2017-10-30T05:08:44.139Z,154.7
2017-10-30T05:09:44.087Z,156.2
2017-10-30T05:10:44.115Z,156.9
2017-10-30T05:11:44.157Z,157.2
2017-10-30T05:12:44.151Z,157.4
2017-10-30T05:13:44.157Z,157.4
2017-10-30T05:14:44.108Z,157.5
2017-10-30T05:20:07.949Z,157.5
2017-10-30T05:20:44.119Z,157.5
2017-10-30T05:21:44.098Z,157.5
2017-10-30T05:22:44.152Z,157.5
2017-10-30T05:23:44.080Z,157.5
2017-10-30T05:24:44.114Z,157.5
2017-10-30T05:25:44.099Z,157.5
2017-10-30T05:26:44.131Z,157.5
2017-10-30T05:27:44.156Z,157.5
2017-10-30T05:28:44.122Z,157.5
2017-10-30T05:29:44.106Z,157.5
2017-10-30T05:30:44.017Z,157.5
2017-10-30T05:31:44.101Z,157.5
2017-10-30T05:32:44.105Z,157.5
2017-10-30T05:33:44.116Z,157.5
2017-10-30T05:34:44.083Z,157.5
2017-10-30T05:35:44.122Z,157.5
2017-10-30T05:36:44.064Z,158.6
2017-10-30T05:37:44.133Z,170
2017-10-30T05:38:44.072Z,175.4
2017-10-30T05:39:44.052Z,177.9
2017-10-30T05:40:44.077Z,179
2017-10-30T05:41:44.120Z,179.5
2017-10-30T05:42:44.134Z,179.8
2017-10-30T05:43:44.095Z,179.9
2017-10-30T05:44:44.061Z,180
2017-10-30T05:45:44.018Z,180.7
2017-10-30T05:46:44.150Z,180.3
2017-10-30T05:48:18.774Z,180.1
2017-10-30T05:48:44.099Z,190.5
2017-10-30T05:49:44.114Z,184.7
2017-10-30T05:50:44.075Z,182.2
2017-10-30T05:51:44.117Z,181
2017-10-30T05:52:44.158Z,180.5
2017-10-30T05:53:44.055Z,180.2
2017-10-30T05:54:44.042Z,180.8
2017-10-30T05:55:44.072Z,180.4
2017-10-30T05:56:44.099Z,180.2
2017-10-30T05:57:44.122Z,180.1
2017-10-30T05:58:44.049Z,180
2017-10-30T05:59:44.039Z,180
2017-10-30T06:00:44.096Z,180
2017-10-30T06:01:44.079Z,180
2017-10-30T06:02:44.080Z,180
2017-10-30T06:03:44.046Z,180
2017-10-30T06:04:44.084Z,180
2017-10-30T06:05:44.066Z,180
2017-10-30T06:06:44.105Z,180
2017-10-30T06:07:44.113Z,180
2017-10-30T06:08:44.086Z,180
2017-10-30T06:09:44.087Z,180
2017-10-30T06:10:44.080Z,180
2017-10-30T06:11:44.720Z,173.6
2017-10-30T06:12:44.149Z,161.3
2017-10-30T06:13:44.074Z,162.5
2017-10-30T06:14:44.088Z,154.6
2017-10-30T06:15:44.043Z,141.7
2017-10-30T06:16:44.134Z,138
2017-10-30T06:17:44.086Z,136.4
2017-10-30T06:18:44.106Z,135.6
2017-10-30T06:19:44.103Z,135.3
2017-10-30T06:20:44.059Z,135.1
2017-10-30T06:21:44.104Z,135.1
2017-10-30T06:22:44.161Z,135
2017-10-30T06:23:45.242Z,135
2017-10-30T06:24:44.066Z,163.4
2017-10-30T06:25:44.109Z,171.3
2017-10-30T06:26:44.092Z,167.7
2017-10-30T06:27:44.130Z,161.5
2017-10-30T06:28:44.141Z,150.5
2017-10-30T06:29:44.075Z,146.3
2017-10-30T06:30:44.032Z,164.7
2017-10-30T06:31:44.026Z,173.1
2017-10-30T06:32:44.089Z,176.9
2017-10-30T06:33:44.274Z,178.5
2017-10-30T06:34:44.062Z,179.3
2017-10-30T06:35:44.032Z,172.3
2017-10-30T06:36:44.050Z,152
2017-10-30T06:37:44.138Z,147.8
2017-10-30T06:38:44.055Z,153.1
2017-10-30T06:39:44.029Z,155.5
2017-10-30T06:40:44.034Z,156.6
2017-10-30T06:41:44.084Z,157.1
2017-10-30T06:42:44.189Z,157.3
2017-10-30T06:43:44.021Z,157.4
2017-10-30T06:44:44.019Z,157.5
2017-10-30T06:45:44.101Z,157.5
2017-10-30T06:46:44.073Z,157.5
2017-10-30T06:47:44.011Z,157.5
2017-10-30T06:48:44.040Z,157.5
2017-10-30T06:49:44.026Z,157.5
2017-10-30T06:50:44.052Z,157.5
2017-10-30T06:51:44.223Z,157.5
2017-10-30T06:52:44.079Z,157.5
2017-10-30T06:53:44.041Z,152.1
2017-10-30T06:54:44.079Z,142.9
2017-10-30T06:55:44.074Z,132.9
2017-10-30T06:56:44.043Z,134
2017-10-30T06:57:44.099Z,134.6
2017-10-30T06:58:44.066Z,134.8
2017-10-30T06:59:44.007Z,134.9
2017-10-30T07:00:44.083Z,135
2017-10-30T07:01:44.012Z,135
2017-10-30T07:02:44.037Z,135
2017-10-30T07:04:18.646Z,135
2017-10-30T07:04:44.066Z,140.4
2017-10-30T07:05:44.027Z,137.5
2017-10-30T07:06:44.112Z,136.2
2017-10-30T07:07:44.056Z,135.5
2017-10-30T07:08:44.112Z,135.3
2017-10-30T07:09:44.040Z,135.1
2017-10-30T07:10:44.037Z,135.1
2017-10-30T07:11:44.059Z,135
2017-10-30T07:12:44.097Z,135
2017-10-30T07:13:44.017Z,131.5
2017-10-30T07:14:44.085Z,133.4
2017-10-30T07:15:44.048Z,134.2
2017-10-30T07:16:44.013Z,150.8
2017-10-30T07:17:44.065Z,167
2017-10-30T07:18:44.071Z,177.1
2017-10-30T07:19:44.044Z,241
2017-10-30T07:20:44.081Z,267.6
2017-10-30T07:21:44.050Z,245.3
2017-10-30T07:22:44.117Z,149.5
2017-10-30T07:23:44.110Z,148.2
2017-10-30T07:24:44.067Z,143.7
2017-10-30T07:25:44.095Z,171.3
2017-10-30T07:26:44.003Z,162.2
2017-10-30T07:27:44.051Z,293.9
2017-10-30T07:28:44.107Z,310.4
2017-10-30T07:29:44.078Z,313.3
2017-10-30T07:30:44.026Z,314.3
2017-10-30T07:31:44.033Z,314.7
2017-10-30T07:32:44.092Z,315.3
2017-10-30T07:33:44.089Z,141.2
2017-10-30T07:34:44.072Z,82.3
2017-10-30T07:35:44.041Z,71.8
2017-10-30T07:36:44.065Z,69.2
2017-10-30T07:37:43.984Z,68.2
2017-10-30T07:38:44.044Z,51.5
2017-10-30T07:39:44.000Z,348.9
2017-10-30T07:40:44.015Z,326.5
2017-10-30T07:41:44.020Z,319.7
2017-10-30T07:42:44.027Z,317.1
2017-10-30T07:43:44.092Z,315.9
2017-10-30T07:44:44.024Z,315.4
2017-10-30T07:45:44.064Z,315.2
2017-10-30T07:46:44.041Z,315.1
2017-10-30T07:47:43.976Z,315
2017-10-30T07:48:44.075Z,315
2017-10-30T07:49:44.046Z,315
2017-10-30T07:50:44.005Z,315
2017-10-30T07:51:44.000Z,315
2017-10-30T07:52:44.014Z,315
2017-10-30T07:53:44.135Z,315
2017-10-30T07:54:44.029Z,315
2017-10-30T07:55:43.988Z,315
2017-10-30T07:56:44.007Z,315
2017-10-30T07:57:44.013Z,315
2017-10-30T07:58:44.150Z,315
2017-10-30T07:59:44.070Z,315
2017-10-30T08:00:43.997Z,315
2017-10-30T08:01:43.996Z,315
2017-10-30T08:02:44.027Z,315
2017-10-30T08:03:44.101Z,315
2017-10-30T08:04:43.989Z,315.5
2017-10-30T08:05:43.995Z,327.2
2017-10-30T08:06:43.994Z,332.8
2017-10-30T08:07:44.031Z,335.3
2017-10-30T08:08:44.052Z,336.5
2017-10-30T08:09:43.969Z,346.3
2017-10-30T08:10:44.025Z,353.7
2017-10-30T08:11:43.975Z,357.1
2017-10-30T08:12:43.996Z,358.6
2017-10-30T08:13:44.031Z,31.1
2017-10-30T08:14:43.982Z,144.8
2017-10-30T08:15:44.018Z,153.8
2017-10-30T08:16:44.045Z,156
2017-10-30T08:17:44.012Z,156.9
2017-10-30T08:18:44.028Z,157.2
2017-10-30T08:19:43.996Z,157.4
2017-10-30T08:20:43.995Z,157.4
2017-10-30T08:21:43.990Z,157.5
2017-10-30T08:22:44.002Z,157.5
2017-10-30T08:23:44.147Z,157.5
2017-10-30T08:24:43.966Z,157.5
2017-10-30T08:25:43.982Z,157.5
2017-10-30T08:26:44.020Z,157.5
2017-10-30T08:27:44.003Z,157.5
2017-10-30T08:28:44.049Z,157.5
2017-10-30T08:29:44.045Z,157.5
2017-10-30T08:30:44.035Z,157.5
2017-10-30T08:31:43.986Z,157.5
2017-10-30T08:32:43.974Z,157.5
2017-10-30T08:33:43.963Z,157.5
2017-10-30T08:34:44.039Z,157.5
2017-10-30T08:35:43.999Z,157.5
2017-10-30T08:36:44.002Z,154.7
2017-10-30T08:37:44.006Z,144
2017-10-30T08:38:44.022Z,144
2017-10-30T08:39:44.051Z,139.4
2017-10-30T08:40:44.010Z,137
2017-10-30T08:41:44.024Z,136
2017-10-30T08:42:43.990Z,135.4
2017-10-30T08:43:44.050Z,134.7
2017-10-30T08:44:44.072Z,134.6
2017-10-30T08:45:44.034Z,134.8
2017-10-30T08:46:44.003Z,134.9
2017-10-30T08:47:43.994Z,135
2017-10-30T08:48:44.001Z,135
2017-10-30T08:49:44.064Z,135
2017-10-30T08:50:44.022Z,135
2017-10-30T08:51:44.027Z,135
2017-10-30T08:52:44.007Z,135
2017-10-30T08:53:44.008Z,135
2017-10-30T08:54:44.085Z,135
2017-10-30T08:55:43.989Z,135
2017-10-30T08:56:43.991Z,135
2017-10-30T08:57:44.071Z,135
2017-10-30T08:58:44.022Z,138.5
2017-10-30T08:59:44.013Z,144.5
2017-10-30T09:00:43.988Z,151.5
2017-10-30T09:01:43.988Z,153.1
2017-10-30T09:02:43.970Z,143.4
2017-10-30T09:03:43.990Z,138.9
2017-10-30T09:04:44.099Z,136.8
2017-10-30T09:05:43.973Z,150.1
2017-10-30T09:06:44.006Z,166.6
2017-10-30T09:07:44.030Z,173.9
2017-10-30T09:08:43.974Z,177.2
2017-10-30T09:09:44.112Z,178.7
2017-10-30T09:10:43.989Z,179.4
2017-10-30T09:11:43.978Z,179.7
2017-10-30T09:12:44.000Z,179.9
2017-10-30T09:13:44.027Z,179.9
2017-10-30T09:14:44.016Z,180
2017-10-30T09:15:43.973Z,180
2017-10-30T09:16:43.999Z,175
2017-10-30T09:17:44.029Z,165.6
2017-10-30T09:18:44.014Z,157.2
2017-10-30T09:19:44.022Z,146.2
2017-10-30T09:20:43.967Z,146.7
2017-10-30T09:21:43.956Z,144.6
2017-10-30T09:22:43.994Z,139.4
2017-10-30T09:23:44.007Z,137
2017-10-30T09:24:44.055Z,135.9
2017-10-30T09:25:43.982Z,135.4
2017-10-30T09:26:43.975Z,135.2
2017-10-30T09:27:43.970Z,135.1
2017-10-30T09:28:43.999Z,135
2017-10-30T09:29:44.000Z,135
2017-10-30T09:30:44.003Z,135
2017-10-30T09:31:43.947Z,135
2017-10-30T09:32:43.985Z,135
2017-10-30T09:33:43.988Z,135
2017-10-30T09:34:44.036Z,135
2017-10-30T09:35:43.995Z,135
2017-10-30T09:36:44.000Z,135
2017-10-30T09:37:43.973Z,135
2017-10-30T09:38:44.013Z,135
2017-10-30T09:39:44.089Z,135
2017-10-30T09:40:44.010Z,135
2017-10-30T09:41:44.015Z,135
2017-10-30T09:43:18.641Z,135
2017-10-30T09:43:43.978Z,140.5
2017-10-30T09:44:44.052Z,137.5
2017-10-30T09:45:43.949Z,136.2
2017-10-30T09:46:43.973Z,135.6
2017-10-30T09:47:43.971Z,137.3
2017-10-30T09:48:43.985Z,136.7
2017-10-30T09:49:44.085Z,142.1
2017-10-30T09:50:43.980Z,148.2
2017-10-30T09:51:43.967Z,141.1
2017-10-30T09:52:44.001Z,147.1
2017-10-30T09:53:44.019Z,140.5
2017-10-30T09:54:44.083Z,147.7
2017-10-30T09:55:44.012Z,140.7
2017-10-30T09:56:43.969Z,137.6
2017-10-30T09:57:44.017Z,136.2
2017-10-30T09:58:43.995Z,135.6
2017-10-30T09:59:44.007Z,135.3
2017-10-30T10:00:44.019Z,135.1
2017-10-30T10:01:44.040Z,135.1
2017-10-30T10:02:44.002Z,135
2017-10-30T10:03:43.982Z,135
2017-10-30T10:04:43.938Z,135
2017-10-30T10:05:44.033Z,137
2017-10-30T10:06:43.958Z,160.1
2017-10-30T10:07:43.986Z,171.1
2017-10-30T10:08:43.975Z,161.6
2017-10-30T10:09:43.989Z,146.9
2017-10-30T10:10:44.027Z,140.4
2017-10-30T10:11:43.988Z,137.5
2017-10-30T10:12:43.998Z,136.1
2017-10-30T10:13:44.003Z,135.5
2017-10-30T10:14:43.989Z,135.2
2017-10-30T10:15:44.026Z,135.1
2017-10-30T10:16:43.972Z,135.1
2017-10-30T10:17:43.974Z,135
2017-10-30T10:18:43.959Z,135
2017-10-30T10:19:44.005Z,135
2017-10-30T10:20:44.100Z,135
2017-10-30T10:21:43.967Z,151.6
2017-10-30T10:22:43.975Z,167.2
2017-10-30T10:23:43.946Z,166.9
2017-10-30T10:24:44.015Z,161.8
2017-10-30T10:25:44.047Z,159.5
2017-10-30T10:26:43.990Z,162.8
2017-10-30T10:27:44.014Z,163.3
2017-10-30T10:28:44.000Z,149.2
2017-10-30T10:29:44.013Z,141.5
2017-10-30T10:30:44.079Z,138
2017-10-30T10:31:43.990Z,136.4
2017-10-30T10:32:44.010Z,135.7
2017-10-30T10:33:43.960Z,150.7
2017-10-30T10:34:43.950Z,166.9
2017-10-30T10:35:44.051Z,174.1
2017-10-30T10:36:43.970Z,177.3
2017-10-30T10:37:44.006Z,178.7
2017-10-30T10:38:43.970Z,169.3
2017-10-30T10:39:43.988Z,175.2
2017-10-30T10:40:44.081Z,177.8
2017-10-30T10:41:44.015Z,175.2
2017-10-30T10:42:44.031Z,177.8
2017-10-30T10:43:43.968Z,179
2017-10-30T10:44:44.018Z,179.5
2017-10-30T10:45:44.023Z,179.8
2017-10-30T10:46:43.976Z,179.9
2017-10-30T10:47:44.022Z,180
2017-10-30T10:48:43.984Z,180
2017-10-30T10:49:44.018Z,169.1
2017-10-30T10:50:44.076Z,151.8
2017-10-30T10:51:43.989Z,148.9
2017-10-30T10:52:43.978Z,166
2017-10-30T10:53:43.989Z,173.7
2017-10-30T10:54:44.010Z,177.1
2017-10-30T10:55:44.044Z,182.6
2017-10-30T10:56:44.003Z,180.9
2017-10-30T10:57:43.950Z,183.6
2017-10-30T10:58:43.996Z,169.5
2017-10-30T10:59:43.986Z,155.9
2017-10-30T11:00:44.010Z,144.1
2017-10-30T11:01:44.044Z,139.1
2017-10-30T11:02:43.985Z,136.9
2017-10-30T11:03:44.004Z,136.2
2017-10-30T11:04:43.983Z,153.5
2017-10-30T11:05:44.106Z,151
2017-10-30T11:06:44.031Z,142.2
2017-10-30T11:07:43.966Z,138.3
2017-10-30T11:08:44.001Z,136.5
2017-10-30T11:09:43.965Z,135.7
2017-10-30T11:10:44.016Z,135.3
2017-10-30T11:11:44.020Z,135.2
2017-10-30T11:12:43.993Z,135.1
2017-10-30T11:13:43.989Z,135
2017-10-30T11:14:43.952Z,135
2017-10-30T11:15:44.056Z,135
2017-10-30T11:16:44.020Z,135
2017-10-30T11:17:44.012Z,135
2017-10-30T11:18:43.969Z,135
2017-10-30T11:19:44.014Z,135
2017-10-30T11:20:44.045Z,146.8
2017-10-30T11:21:44.060Z,164.9
2017-10-30T11:22:43.997Z,173.2
2017-10-30T11:23:43.970Z,180.2
2017-10-30T11:24:43.958Z,180.1
2017-10-30T11:25:43.963Z,195.5
2017-10-30T11:26:44.065Z,212.1
2017-10-30T11:27:43.949Z,219.2
2017-10-30T11:28:44.015Z,222.4
2017-10-30T11:29:43.994Z,223.8
2017-10-30T11:30:43.920Z,224.4
2017-10-30T11:31:44.064Z,224.7
2017-10-30T11:32:43.957Z,224.9
2017-10-30T11:33:44.007Z,224.9
2017-10-30T11:34:44.038Z,225
2017-10-30T11:35:44.031Z,225
2017-10-30T11:37:01.042Z,225
2017-10-30T11:37:44.936Z,235.5
2017-10-30T11:38:46.493Z,242.2
2017-10-30T11:39:44.205Z,245
2017-10-30T11:40:46.274Z,246.3
2017-10-30T11:41:44.327Z,247
2017-10-30T11:42:44.044Z,247.2
2017-10-30T11:43:43.959Z,255.7
2017-10-30T11:44:43.997Z,263.4
2017-10-30T11:45:43.889Z,267
2017-10-30T11:46:44.121Z,268.6
2017-10-30T11:47:44.021Z,269.3
2017-10-30T11:48:43.968Z,269.7
2017-10-30T11:49:44.047Z,269.9
2017-10-30T11:50:43.961Z,269.9
2017-10-30T11:51:44.012Z,270
2017-10-30T11:52:44.064Z,270
2017-10-30T11:53:43.957Z,270
2017-10-30T11:54:43.963Z,270
2017-10-30T11:55:43.992Z,270
2017-10-30T11:56:43.983Z,270
2017-10-30T11:57:44.014Z,270
2017-10-30T11:58:44.000Z,270
2017-10-30T11:59:46.379Z,270
2017-10-30T12:00:45.730Z,269.7
2017-10-30T12:01:46.213Z,269.9
2017-10-30T12:02:44.222Z,269.9
2017-10-30T12:03:44.205Z,270
2017-10-30T12:04:44.428Z,270
2017-10-30T12:05:44.199Z,270
2017-10-30T12:06:48.440Z,270
2017-10-30T12:07:45.500Z,269.7
2017-10-30T12:08:44.504Z,269.6
2017-10-30T12:09:44.112Z,269.8
2017-10-30T12:10:45.164Z,269.9
2017-10-30T12:11:44.525Z,269.7
2017-10-30T12:12:44.589Z,269.9
2017-10-30T12:13:44.952Z,269.9
2017-10-30T12:14:44.166Z,270
2017-10-30T12:15:43.908Z,270
2017-10-30T12:16:43.960Z,270
2017-10-30T12:17:44.092Z,270
2017-10-30T12:18:45.084Z,270
2017-10-30T12:19:45.412Z,238.4
2017-10-30T12:20:44.272Z,176.9
2017-10-30T12:21:44.356Z,164.8
2017-10-30T12:22:44.266Z,173.8
2017-10-30T12:24:04.687Z,165.3
2017-10-30T12:24:44.353Z,163.2
2017-10-30T12:25:46.864Z,167.1
2017-10-30T12:26:44.296Z,165
2017-10-30T12:27:46.574Z,167
2017-10-30T12:28:45.713Z,173.5
2017-10-30T12:29:44.324Z,174.4
2017-10-30T12:30:46.258Z,175.1
2017-10-30T12:31:44.602Z,170.2
2017-10-30T12:32:49.193Z,171.3
2017-10-30T12:33:44.098Z,173
2017-10-30T12:34:44.432Z,170.6
2017-10-30T12:35:44.481Z,175.7
2017-10-30T12:36:46.020Z,172.5
2017-10-30T12:37:45.268Z,170.3
2017-10-30T12:38:44.372Z,166.4
2017-10-30T12:39:44.383Z,161.9
2017-10-30T12:40:43.941Z,159
2017-10-30T12:41:43.997Z,169.4
2017-10-30T12:42:43.939Z,164.1
2017-10-30T12:43:47.645Z,160.6
2017-10-30T12:44:46.308Z,154.8
2017-10-30T12:45:44.136Z,144.5
2017-10-30T12:46:44.612Z,139.4
2017-10-30T12:47:46.273Z,137
2017-10-30T12:48:46.370Z,124.2
2017-10-30T12:49:44.395Z,118
2017-10-30T12:50:44.233Z,115.1
2017-10-30T12:51:46.275Z,113.7
2017-10-30T12:52:44.389Z,113.1
2017-10-30T12:53:44.765Z,112.8
2017-10-30T12:54:45.079Z,112.6
2017-10-30T12:55:46.210Z,112.6
2017-10-30T12:56:44.326Z,112.5
2017-10-30T12:57:44.517Z,112.5
2017-10-30T12:58:44.383Z,112.5
2017-10-30T12:59:44.401Z,112.5
2017-10-30T13:00:44.202Z,112.5
2017-10-30T13:01:44.499Z,112.5
2017-10-30T13:02:44.587Z,112.5
2017-10-30T13:03:44.507Z,115.6
2017-10-30T13:04:43.953Z,126
2017-10-30T13:05:43.980Z,121.4
2017-10-30T13:06:43.996Z,103.9
2017-10-30T13:07:43.979Z,96.5
2017-10-30T13:08:44.069Z,93
2017-10-30T13:09:43.996Z,91.4
2017-10-30T13:10:44.008Z,90.6
2017-10-30T13:11:43.974Z,90.3
2017-10-30T13:12:44.007Z,90.1
2017-10-30T13:13:44.138Z,90.1
2017-10-30T13:14:43.992Z,90
2017-10-30T13:15:43.905Z,90
2017-10-30T13:16:43.953Z,90
2017-10-30T13:17:43.955Z,90
2017-10-30T13:18:44.068Z,90